KASE/ASE METAR and TAF weather

Enter ICAO airport designator
Station Type Date Time Source
KASE METAR 2019/02/23 03:03 UTC NOAA

KASE 230303Z AUTO 02004KT 3SM -SN BR SCT006 BKN015 OVC020 M04/M06 A2971 RMK AO2 P0000 T10391061


Station Type Date Time Source
KASE Decoded METAR 2019/02/23 03:03 UTC NOAA

ASPEN-PITKIN COUNTY AIRPORT, CO, United States (KASE) 39-14N 106-52W 2354M
Feb 22, 2019 - 10:03 PM EST / 2019.02.23 0303 UTC
Wind: from the NNE (020 degrees) at 5 MPH (4 KT):0
Visibility: 3 mile(s):0
Sky conditions: overcast
Weather: light snow; mist
Precipitation last hour: A trace
Temperature: 25.0 F (-3.9 C)
Windchill: 19 F (-7 C):1
Dew Point: 21.0 F (-6.1 C)
Relative Humidity: 84%
Pressure (altimeter): 29.71 in. Hg (1006 hPa)
ob: KASE 230303Z AUTO 02004KT 3SM -SN BR SCT006 BKN015 OVC020 M04/M06 A2971 RMK AO2 P0000 T10391061
cycle: 3

Station Type Date Time Source
KASE TAF 2019/02/23 03:48 UTC NOAA

TAF
AMD KASE 230245Z 2303/2324 36005KT P6SM VCSH BKN015 OVC040
TEMPO 2303/2304 4SM -SN BR OVC010
FM230400 VRB03KT 2SM -SHSN BKN008 OVC030
FM231000 VRB04KT P6SM VCSH BKN015 OVC050
FM231500 VRB04KT P6SM FEW045 SCT090
FM232000 34009KT P6SM FEW110


Example: see airport list